Time;durP1;ratioP1;P1;durP2;ratioP2;P2;SDS_P1;SDS_P2;PMS_P1;PMS_P2;Temp;Humidity;BMP_temperature;BMP_pressure;BME280_temperature;BME280_humidity;BME280_pressure;Samples;Min_cycle;Max_cycle;Signal;HPM_P1;HPM_P2
2021/07/03 00:00:47;;;;;;;;;;;;;;;30.71;33.62;97549.84;5040387;28;1238;-83
2021/07/03 00:03:12;;;;;;;;;;;;;;;30.65;33.71;97555.78;5041073;28;1520;-83
2021/07/03 00:05:37;;;;;;;;;;;;;;;30.53;33.80;97555.16;5039606;28;1626;-84
2021/07/03 00:08:03;;;;;;;;;;;;;;;30.35;34.20;97550.84;5048380;23;3740;-53
2021/07/03 00:10:28;;;;;;;;;;;;;;;30.57;34.02;97548.56;5017790;28;1415;-54
2021/07/03 00:12:53;;;;;;;;;;;;;;;30.41;33.83;97542.22;5020637;28;1322;-54
2021/07/03 00:15:21;;;;;;;;;;;;;;;30.60;33.66;97550.06;5018073;28;1458;-53
2021/07/03 00:17:46;;;;;;;;;;;;;;;30.14;34.35;97551.13;5019695;28;1914;-53
2021/07/03 00:20:12;;;;;;;;;;;;;;;30.82;33.34;97541.63;5020051;28;1371;-52
2021/07/03 00:22:37;;;;;;;;;;;;;;;30.12;34.69;97539.78;5037080;23;2190;-55
2021/07/03 00:25:03;;;;;;;;;;;;;;;30.45;33.79;97536.47;5017280;28;1303;-56
2021/07/03 00:27:28;;;;;;;;;;;;;;;30.37;33.93;97540.88;5016688;28;1534;-56
2021/07/03 00:29:53;;;;;;;;;;;;;;;30.10;34.48;97534.63;5019314;28;1410;-56
2021/07/03 00:32:18;;;;;;;;;;;;;;;30.24;34.40;97533.25;5018169;28;1381;-55
2021/07/03 00:34:44;;;;;;;;;;;;;;;30.13;34.40;97531.66;5018531;28;1646;-56
2021/07/03 00:37:09;;;;;;;;;;;;;;;30.49;34.01;97537.84;5019762;28;1914;-56
2021/07/03 00:39:34;;;;;;;;;;;;;;;30.55;33.91;97529.22;5019824;28;1164;-54
2021/07/03 00:41:59;;;;;;;;;;;;;;;30.28;34.35;97526.66;5017699;28;1626;-57
2021/07/03 00:44:25;;;;;;;;;;;;;;;30.34;34.00;97526.06;5019487;28;1654;-55
2021/07/03 00:46:50;;;;;;;;;;;;;;;30.20;34.61;97519.44;5019817;28;1315;-54
2021/07/03 00:49:15;;;;;;;;;;;;;;;31.17;32.86;97520.38;5020167;28;1559;-57
2021/07/03 00:51:41;;;;;;;;;;;;;;;30.34;34.05;97517.25;5018607;28;1396;-55
2021/07/03 00:54:06;;;;;;;;;;;;;;;29.88;34.98;97517.22;5019500;28;1271;-56
2021/07/03 00:56:31;;;;;;;;;;;;;;;30.18;34.45;97521.41;4995939;28;1898;-56
2021/07/03 00:58:56;;;;;;;;;;;;;;;30.14;34.16;97521.84;5017998;28;1282;-56
2021/07/03 01:01:21;;;;;;;;;;;;;;;30.13;34.43;97529.00;5009892;28;1643;-54
2021/07/03 01:03:47;;;;;;;;;;;;;;;30.79;33.21;97522.47;5011124;28;1536;-55
2021/07/03 01:06:12;;;;;;;;;;;;;;;30.39;33.86;97525.59;5017241;28;1600;-56
2021/07/03 01:08:37;;;;;;;;;;;;;;;30.62;33.44;97515.31;5018287;28;1165;-55
2021/07/03 01:11:02;;;;;;;;;;;;;;;30.23;34.11;97519.13;5018973;28;966;-54
2021/07/03 01:13:28;;;;;;;;;;;;;;;30.39;33.86;97520.25;5018816;28;1269;-56
2021/07/03 01:15:53;;;;;;;;;;;;;;;30.40;33.96;97516.59;5018002;28;1523;-56
2021/07/03 01:18:18;;;;;;;;;;;;;;;30.44;33.76;97520.66;5019102;28;1967;-56
2021/07/03 01:20:43;;;;;;;;;;;;;;;30.15;34.40;97515.53;5016746;28;1358;-56
2021/07/03 01:23:09;;;;;;;;;;;;;;;30.57;33.43;97515.75;5016841;28;1420;-56
2021/07/03 01:25:34;;;;;;;;;;;;;;;30.06;34.24;97516.41;5001410;28;1388;-56
2021/07/03 01:28:04;;;;;;;;;;;;;;;30.27;33.98;97514.34;5015167;28;1762;-55
2021/07/03 01:30:29;;;;;;;;;;;;;;;30.40;33.74;97520.09;5019281;28;1165;-56
2021/07/03 01:32:54;;;;;;;;;;;;;;;30.41;33.50;97520.94;5017327;28;1603;-55
2021/07/03 01:35:23;;;;;;;;;;;;;;;30.42;33.63;97519.97;5019789;28;1185;-56
2021/07/03 01:37:48;;;;;;;;;;;;;;;30.28;33.99;97511.53;5017075;28;1953;-54
2021/07/03 01:40:14;;;;;;;;;;;;;;;30.17;34.16;97511.72;5014816;28;1555;-56
2021/07/03 01:42:39;;;;;;;;;;;;;;;30.51;33.81;97513.72;5021462;28;1712;-56
2021/07/03 01:45:04;;;;;;;;;;;;;;;30.37;33.76;97522.25;5022238;28;1177;-56
2021/07/03 01:47:29;;;;;;;;;;;;;;;30.72;33.34;97522.22;5020733;28;1394;-56
2021/07/03 01:49:55;;;;;;;;;;;;;;;30.26;34.07;97524.16;5023025;28;1637;-54
2021/07/03 01:52:20;;;;;;;;;;;;;;;30.29;33.84;97526.50;5019187;28;1954;-55
2021/07/03 01:54:45;;;;;;;;;;;;;;;30.19;34.22;97528.41;5021042;28;1129;-56
2021/07/03 01:57:11;;;;;;;;;;;;;;;30.48;33.80;97527.31;5021913;28;1914;-56
2021/07/03 01:59:36;;;;;;;;;;;;;;;30.39;33.72;97528.25;5021544;28;1474;-56
2021/07/03 02:02:02;;;;;;;;;;;;;;;30.66;33.19;97530.88;5020425;28;1753;-55
2021/07/03 02:04:27;;;;;;;;;;;;;;;30.23;33.90;97519.13;5014927;28;1616;-55
2021/07/03 02:06:52;;;;;;;;;;;;;;;30.33;33.92;97520.88;5015149;28;1599;-56
2021/07/03 02:09:17;;;;;;;;;;;;;;;30.58;33.58;97517.44;5021360;28;1141;-56
2021/07/03 02:11:42;;;;;;;;;;;;;;;30.40;33.89;97516.59;5019128;28;1370;-56
2021/07/03 02:14:08;;;;;;;;;;;;;;;30.32;34.02;97517.38;5019556;28;1507;-54
2021/07/03 02:16:34;;;;;;;;;;;;;;;30.70;33.24;97520.72;5021087;28;1964;-56
2021/07/03 02:18:59;;;;;;;;;;;;;;;30.51;33.48;97521.72;5021211;28;1645;-56
2021/07/03 02:21:24;;;;;;;;;;;;;;;30.51;33.27;97516.41;5022154;28;1346;-55
2021/07/03 02:23:50;;;;;;;;;;;;;;;30.72;33.29;97519.56;5019080;28;1402;-56
2021/07/03 02:26:15;;;;;;;;;;;;;;;30.89;32.87;97519.69;5020252;28;1164;-55
2021/07/03 02:28:40;;;;;;;;;;;;;;;30.31;33.92;97526.34;5019264;28;1603;-56
2021/07/03 02:31:05;;;;;;;;;;;;;;;30.79;32.97;97525.13;5021858;28;1211;-55
2021/07/03 02:33:30;;;;;;;;;;;;;;;30.14;33.95;97525.34;5018881;28;1547;-56
2021/07/03 02:35:56;;;;;;;;;;;;;;;30.53;33.36;97519.72;5021485;28;1188;-56
2021/07/03 02:38:21;;;;;;;;;;;;;;;30.89;32.72;97519.69;5019417;28;1906;-56
2021/07/03 02:40:46;;;;;;;;;;;;;;;30.62;33.26;97518.81;5020635;28;2050;-56
2021/07/03 02:43:12;;;;;;;;;;;;;;;30.57;33.27;97521.06;5017747;28;1589;-56
2021/07/03 02:45:38;;;;;;;;;;;;;;;30.54;33.24;97518.72;5021131;28;1160;-55
2021/07/03 02:48:03;;;;;;;;;;;;;;;30.51;33.39;97525.22;5018601;28;1635;-56
2021/07/03 02:50:28;;;;;;;;;;;;;;;30.70;32.91;97524.22;5022584;28;1204;-56
2021/07/03 02:52:53;;;;;;;;;;;;;;;30.72;32.99;97527.56;5017132;28;1402;-54
2021/07/03 02:55:19;;;;;;;;;;;;;;;30.13;34.38;97526.34;5020460;28;1675;-55
2021/07/03 02:57:44;;;;;;;;;;;;;;;30.57;33.25;97537.91;5020627;28;1963;-56
2021/07/03 03:00:10;;;;;;;;;;;;;;;30.69;33.16;97543.84;5021980;28;1184;-54
2021/07/03 03:02:36;;;;;;;;;;;;;;;30.20;33.94;97535.41;5021107;28;1599;-54
2021/07/03 03:05:01;;;;;;;;;;;;;;;30.17;33.94;97535.69;5021550;28;987;-56
2021/07/03 03:07:26;;;;;;;;;;;;;;;30.59;32.98;97529.78;5018506;28;1642;-56
2021/07/03 03:09:51;;;;;;;;;;;;;;;29.82;34.64;97531.13;5021133;28;1324;-56
2021/07/03 03:12:16;;;;;;;;;;;;;;;30.40;33.55;97535.22;5021306;28;1228;-55
2021/07/03 03:14:42;;;;;;;;;;;;;;;30.39;33.48;97538.88;5019806;28;1638;-56
2021/07/03 03:17:07;;;;;;;;;;;;;;;30.51;33.57;97533.19;5018525;28;1902;-56
2021/07/03 03:19:32;;;;;;;;;;;;;;;30.50;33.62;97525.38;5019436;28;1701;-55
2021/07/03 03:21:57;;;;;;;;;;;;;;;30.42;33.29;97533.28;5021468;28;1370;-56
2021/07/03 03:24:22;;;;;;;;;;;;;;;29.95;34.21;97536.09;5021899;28;1296;-55
2021/07/03 03:26:48;;;;;;;;;;;;;;;30.70;32.91;97531.38;5017563;28;1992;-56
2021/07/03 03:29:13;;;;;;;;;;;;;;;30.53;33.09;97523.22;5019241;28;1694;-55
2021/07/03 03:31:38;;;;;;;;;;;;;;;30.30;33.81;97530.00;5019288;28;1125;-56
2021/07/03 03:34:03;;;;;;;;;;;;;;;30.27;33.72;97531.16;5017683;28;1579;-55
2021/07/03 03:36:28;;;;;;;;;;;;;;;30.38;33.50;97530.06;5019852;28;1910;-56
2021/07/03 03:38:54;;;;;;;;;;;;;;;30.21;33.88;97531.75;5014264;28;1716;-51
2021/07/03 03:41:20;;;;;;;;;;;;;;;30.22;33.75;97529.91;5018049;28;1592;-56
2021/07/03 03:43:45;;;;;;;;;;;;;;;30.47;33.39;97533.63;5020506;28;1293;-56
2021/07/03 03:46:11;;;;;;;;;;;;;;;30.35;33.63;97540.19;5018120;28;1633;-56
2021/07/03 03:48:36;;;;;;;;;;;;;;;30.26;33.67;97544.59;5018080;28;1674;-57
2021/07/03 03:51:01;;;;;;;;;;;;;;;30.20;33.85;97542.53;5019174;28;1303;-56
2021/07/03 03:53:26;;;;;;;;;;;;;;;30.46;33.38;97537.28;5018719;28;1627;-56
2021/07/03 03:55:51;;;;;;;;;;;;;;;30.56;33.38;97535.38;5019128;28;1406;-56
2021/07/03 03:58:16;;;;;;;;;;;;;;;30.00;34.33;97537.28;5019615;28;1903;-56
2021/07/03 04:00:42;;;;;;;;;;;;;;;30.25;34.02;97540.25;5019400;28;1239;-56
2021/07/03 04:03:07;;;;;;;;;;;;;;;30.73;32.99;97537.25;5016681;28;1809;-55
2021/07/03 04:05:32;;;;;;;;;;;;;;;30.26;33.61;97534.78;5016624;28;1591;-56
2021/07/03 04:07:57;;;;;;;;;;;;;;;30.43;33.39;97535.78;5016010;28;1602;-55
2021/07/03 04:10:23;;;;;;;;;;;;;;;30.37;33.55;97543.53;5017586;28;1449;-54
2021/07/03 04:12:48;;;;;;;;;;;;;;;30.21;33.63;97536.22;5020625;28;1272;-55
2021/07/03 04:15:14;;;;;;;;;;;;;;;30.27;33.45;97541.78;5016814;28;1575;-56
2021/07/03 04:17:39;;;;;;;;;;;;;;;30.30;33.43;97544.13;5017757;28;1914;-56
2021/07/03 04:20:05;;;;;;;;;;;;;;;30.66;33.01;97540.69;5017978;28;1291;-56
2021/07/03 04:22:30;;;;;;;;;;;;;;;30.05;33.96;97536.88;5020118;28;1425;-56
2021/07/03 04:24:55;;;;;;;;;;;;;;;30.05;34.15;97533.38;5015972;28;1614;-56
2021/07/03 04:27:20;;;;;;;;;;;;;;;30.09;33.90;97532.94;5021558;28;1148;-55
2021/07/03 04:29:46;;;;;;;;;;;;;;;30.40;33.56;97537.91;5017543;28;2112;-54
2021/07/03 04:32:11;;;;;;;;;;;;;;;30.36;33.48;97537.38;5020248;28;1251;-55
2021/07/03 04:34:36;;;;;;;;;;;;;;;29.84;34.31;97528.31;5019732;28;1777;-56
2021/07/03 04:37:01;;;;;;;;;;;;;;;30.39;33.74;97533.56;5020337;28;1906;-56
2021/07/03 04:39:27;;;;;;;;;;;;;;;30.50;33.12;97536.00;5016311;28;1496;-54
2021/07/03 04:41:52;;;;;;;;;;;;;;;30.32;33.64;97533.34;5019890;28;1210;-56
2021/07/03 04:44:17;;;;;;;;;;;;;;;30.36;33.53;97526.72;5017046;28;1694;-56
2021/07/03 04:46:43;;;;;;;;;;;;;;;30.01;34.15;97522.19;5020700;28;1173;-56
2021/07/03 04:49:08;;;;;;;;;;;;;;;30.17;33.85;97525.03;5018120;28;1654;-56
2021/07/03 04:51:33;;;;;;;;;;;;;;;30.06;33.90;97519.91;5019126;28;1339;-57
2021/07/03 04:53:59;;;;;;;;;;;;;;;29.77;34.71;97528.06;5018305;28;1425;-56
2021/07/03 04:56:24;;;;;;;;;;;;;;;30.18;33.74;97524.06;5019588;28;1969;-56
2021/07/03 04:58:49;;;;;;;;;;;;;;;30.15;33.92;97521.69;5018190;28;1599;-56
2021/07/03 05:01:14;;;;;;;;;;;;;;;30.45;33.38;97525.81;5018130;28;1509;-56
2021/07/03 05:03:39;;;;;;;;;;;;;;;30.19;33.76;97517.75;5018800;28;1665;-55
2021/07/03 05:06:05;;;;;;;;;;;;;;;30.58;33.02;97512.13;5018566;28;2081;-56
2021/07/03 05:08:30;;;;;;;;;;;;;;;30.35;33.38;97521.56;5020568;28;1295;-56
2021/07/03 05:10:55;;;;;;;;;;;;;;;30.08;33.75;97520.63;5016279;28;1422;-56
2021/07/03 05:13:20;;;;;;;;;;;;;;;29.92;34.34;97515.09;5015159;28;1575;-55
2021/07/03 05:15:45;;;;;;;;;;;;;;;30.47;33.14;97515.84;5022062;28;1022;-56
2021/07/03 05:18:11;;;;;;;;;;;;;;;30.09;33.85;97519.63;5021880;28;1965;-55
2021/07/03 05:20:36;;;;;;;;;;;;;;;30.26;33.49;97515.34;5022080;28;1282;-55
2021/07/03 05:23:01;;;;;;;;;;;;;;;30.45;33.42;97509.84;5019317;28;1359;-56
2021/07/03 05:25:26;;;;;;;;;;;;;;;30.24;33.55;97514.63;5022511;28;1140;-55
2021/07/03 05:27:51;;;;;;;;;;;;;;;30.48;33.64;97503.38;5020399;28;1598;-56
2021/07/03 05:30:17;;;;;;;;;;;;;;;30.56;33.36;97506.09;5022473;28;1563;-55
2021/07/03 05:32:42;;;;;;;;;;;;;;;30.18;34.07;97510.78;5020321;28;1662;-55
2021/07/03 05:35:07;;;;;;;;;;;;;;;30.18;33.81;97512.59;5023960;28;1228;-55
2021/07/03 05:37:33;;;;;;;;;;;;;;;30.14;33.94;97516.53;5020808;28;1901;-57
2021/07/03 05:39:58;;;;;;;;;;;;;;;30.03;34.10;97514.91;5017717;28;1613;-56
2021/07/03 05:42:23;;;;;;;;;;;;;;;30.21;33.90;97517.59;5021229;28;1272;-55
2021/07/03 05:44:48;;;;;;;;;;;;;;;29.99;34.38;97524.16;5021951;28;1192;-55
2021/07/03 05:47:13;;;;;;;;;;;;;;;29.88;34.44;97524.38;5022903;28;1445;-55
2021/07/03 05:49:41;;;;;;;;;;;;;;;29.93;34.17;97519.44;5005045;28;1720;-56
2021/07/03 05:52:07;;;;;;;;;;;;;;;29.99;34.26;97522.34;5019948;28;1326;-55
2021/07/03 05:54:32;;;;;;;;;;;;;;;29.62;35.04;97521.56;5022410;28;1379;-54
2021/07/03 05:56:57;;;;;;;;;;;;;;;29.68;34.98;97524.47;5021399;28;1966;-56
2021/07/03 05:59:22;;;;;;;;;;;;;;;29.86;34.44;97518.34;5023806;28;1204;-55
2021/07/03 06:01:48;;;;;;;;;;;;;;;29.86;34.55;97521.88;5017949;28;1538;-54
2021/07/03 06:04:13;;;;;;;;;;;;;;;29.71;34.93;97520.69;5020164;28;1667;-55
2021/07/03 06:06:38;;;;;;;;;;;;;;;29.93;34.76;97516.78;5019408;28;1684;-54
2021/07/03 06:09:03;;;;;;;;;;;;;;;29.68;34.96;97513.84;5023684;28;1379;-55
2021/07/03 06:11:29;;;;;;;;;;;;;;;30.17;34.24;97519.72;5018139;28;1334;-54
2021/07/03 06:13:55;;;;;;;;;;;;;;;30.22;34.06;97514.78;5021050;28;1375;-56
2021/07/03 06:16:20;;;;;;;;;;;;;;;29.97;34.63;97510.19;5019870;28;1961;-56
2021/07/03 06:18:45;;;;;;;;;;;;;;;29.81;34.95;97502.03;5022134;28;1618;-54
2021/07/03 06:21:11;;;;;;;;;;;;;;;29.64;34.98;97511.63;5021753;28;1172;-56
2021/07/03 06:23:36;;;;;;;;;;;;;;;29.87;34.85;97514.72;5034651;23;2068;-54
2021/07/03 06:26:03;;;;;;;;;;;;;;;29.93;34.53;97514.94;5019753;28;1353;-54
2021/07/03 06:28:28;;;;;;;;;;;;;;;30.26;33.90;97510.84;5020578;28;1552;-53
2021/07/03 06:30:54;;;;;;;;;;;;;;;30.17;34.25;97509.06;5023347;28;1287;-52
2021/07/03 06:33:19;;;;;;;;;;;;;;;29.80;34.65;97511.00;5019209;28;1644;-52
2021/07/03 06:35:44;;;;;;;;;;;;;;;29.99;34.37;97516.19;5017757;28;1942;-54
2021/07/03 06:38:09;;;;;;;;;;;;;;;30.29;34.15;97515.84;5024251;28;1914;-52
2021/07/03 06:40:35;;;;;;;;;;;;;;;30.05;34.15;97507.59;5022237;28;1009;-55
2021/07/03 06:43:00;;;;;;;;;;;;;;;30.03;34.48;97512.25;5020727;28;1479;-53
2021/07/03 06:45:25;;;;;;;;;;;;;;;30.08;34.21;97509.97;5019677;28;1185;-52
2021/07/03 06:47:50;;;;;;;;;;;;;;;30.21;34.18;97513.13;5019645;28;1529;-55
2021/07/03 06:50:16;;;;;;;;;;;;;;;30.51;33.43;97503.09;5020271;28;1046;-53
2021/07/03 06:52:41;;;;;;;;;;;;;;;30.53;33.49;97506.41;5018137;28;1297;-52
2021/07/03 06:55:06;;;;;;;;;;;;;;;30.16;34.25;97506.56;5020691;28;1197;-54
2021/07/03 06:57:31;;;;;;;;;;;;;;;30.25;33.88;97505.66;5018170;28;1981;-55
2021/07/03 06:59:57;;;;;;;;;;;;;;;29.97;34.40;97502.22;5020011;28;1090;-53
2021/07/03 07:02:22;;;;;;;;;;;;;;;30.24;33.90;97507.47;5019295;28;1184;-53
2021/07/03 07:04:47;;;;;;;;;;;;;;;30.40;33.97;97506.78;5017610;28;1537;-52
2021/07/03 07:07:12;;;;;;;;;;;;;;;30.17;34.08;97498.44;5018482;28;1650;-53
2021/07/03 07:09:37;;;;;;;;;;;;;;;30.01;34.39;97506.22;5020861;28;978;-52
2021/07/03 07:12:03;;;;;;;;;;;;;;;30.41;33.66;97500.47;5019823;28;1239;-54
2021/07/03 07:14:28;;;;;;;;;;;;;;;30.27;33.83;97496.56;5019647;28;1568;-51
2021/07/03 07:16:53;;;;;;;;;;;;;;;30.20;34.11;97497.31;5017885;28;1911;-52
2021/07/03 07:19:19;;;;;;;;;;;;;;;30.30;34.12;97498.06;5019409;28;1604;-55
2021/07/03 07:21:44;;;;;;;;;;;;;;;30.84;32.98;97488.22;5020125;28;1185;-53
2021/07/03 07:24:09;;;;;;;;;;;;;;;30.18;34.33;97486.00;5018797;28;1276;-55
2021/07/03 07:26:34;;;;;;;;;;;;;;;30.09;34.24;97482.41;5017479;28;1557;-54
2021/07/03 07:28:59;;;;;;;;;;;;;;;30.35;33.69;97479.84;5019528;28;1176;-55
2021/07/03 07:31:25;;;;;;;;;;;;;;;30.36;33.70;97483.31;5019332;28;1203;-54
2021/07/03 07:33:50;;;;;;;;;;;;;;;30.02;34.51;97490.13;5018331;28;1597;-54
2021/07/03 07:36:15;;;;;;;;;;;;;;;29.99;34.39;97487.75;5016546;28;1255;-53
2021/07/03 07:38:40;;;;;;;;;;;;;;;29.81;34.83;97488.72;5019774;28;1970;-53
2021/07/03 07:41:06;;;;;;;;;;;;;;;30.27;34.14;97482.41;5017024;28;1597;-55
2021/07/03 07:43:31;;;;;;;;;;;;;;;30.19;34.11;97482.34;5020195;28;1284;-54
2021/07/03 07:45:56;;;;;;;;;;;;;;;30.42;33.61;97477.41;5017825;28;1117;-54
2021/07/03 07:48:22;;;;;;;;;;;;;;;30.66;33.25;97474.97;5019191;28;1533;-53
2021/07/03 07:50:47;;;;;;;;;;;;;;;30.25;34.16;97471.91;5019505;28;1276;-53
2021/07/03 07:53:12;;;;;;;;;;;;;;;30.54;33.66;97470.81;5018421;28;1367;-53
2021/07/03 07:55:37;;;;;;;;;;;;;;;30.62;33.38;97464.72;5018674;28;983;-53
2021/07/03 07:58:02;;;;;;;;;;;;;;;30.45;33.51;97466.44;5015631;28;1957;-53
2021/07/03 08:00:28;;;;;;;;;;;;;;;30.89;32.87;97466.44;5018229;28;1231;-52
2021/07/03 08:02:53;;;;;;;;;;;;;;;30.18;33.94;97465.56;5017385;28;1616;-52
2021/07/03 08:05:19;;;;;;;;;;;;;;;30.35;33.99;97465.69;5017644;28;1058;-54
2021/07/03 08:07:44;;;;;;;;;;;;;;;30.50;33.57;97461.50;5018232;28;1716;-55
2021/07/03 08:10:10;;;;;;;;;;;;;;;30.57;33.35;97451.88;5018639;28;1181;-52
2021/07/03 08:12:35;;;;;;;;;;;;;;;30.51;33.46;97460.50;5019366;28;1212;-53
2021/07/03 08:15:01;;;;;;;;;;;;;;;30.88;32.87;97456.78;5017391;28;1280;-52
2021/07/03 08:17:26;;;;;;;;;;;;;;;30.31;33.83;97454.50;5015248;28;1906;-53
2021/07/03 08:19:51;;;;;;;;;;;;;;;30.30;33.78;97447.53;5017608;28;1597;-54
2021/07/03 08:22:16;;;;;;;;;;;;;;;30.59;33.30;97447.25;5019144;28;1038;-52
2021/07/03 08:24:41;;;;;;;;;;;;;;;30.76;32.86;97449.06;5017604;28;1293;-54
2021/07/03 08:27:07;;;;;;;;;;;;;;;30.97;32.94;97445.22;5018300;28;1656;-53
2021/07/03 08:29:32;;;;;;;;;;;;;;;30.16;34.13;97448.06;5019927;28;1299;-53
2021/07/03 08:31:57;;;;;;;;;;;;;;;30.18;33.96;97443.44;5020428;28;1164;-55
2021/07/03 08:34:22;;;;;;;;;;;;;;;30.56;33.49;97439.56;5019826;28;1596;-55
2021/07/03 08:36:47;;;;;;;;;;;;;;;30.35;33.88;97447.06;5017809;28;1906;-54
2021/07/03 08:39:13;;;;;;;;;;;;;;;30.54;33.60;97444.22;5020022;28;1102;-53
2021/07/03 08:41:38;;;;;;;;;;;;;;;30.89;32.79;97445.13;5017571;28;1670;-53
2021/07/03 08:44:03;;;;;;;;;;;;;;;30.24;34.17;97433.00;5019687;28;1296;-53
2021/07/03 08:46:28;;;;;;;;;;;;;;;30.44;33.64;97444.31;5019469;28;1330;-53
2021/07/03 08:48:54;;;;;;;;;;;;;;;30.22;34.11;97427.00;5019171;28;1596;-52
2021/07/03 08:51:21;;;;;;;;;;;;;;;30.75;33.35;97425.25;5022585;28;1447;-51
2021/07/03 08:53:47;;;;;;;;;;;;;;;31.00;32.78;97431.56;5024532;28;1375;-53
2021/07/03 08:56:12;;;;;;;;;;;;;;;30.71;33.07;97419.41;5020413;28;1573;-53
2021/07/03 08:58:38;;;;;;;;;;;;;;;30.44;33.59;97425.69;5020707;28;1906;-54
2021/07/03 09:01:03;;;;;;;;;;;;;;;30.46;33.67;97421.03;5021764;28;1576;-49
2021/07/03 09:03:29;;;;;;;;;;;;;;;31.06;32.61;97413.13;5024168;28;1659;-52
2021/07/03 09:05:55;;;;;;;;;;;;;;;30.76;33.39;97419.78;5019128;28;1643;-52
2021/07/03 09:08:20;;;;;;;;;;;;;;;30.80;33.16;97412.28;5019391;28;1581;-52
2021/07/03 09:10:46;;;;;;;;;;;;;;;30.80;33.11;97405.13;5018578;28;1576;-54
2021/07/03 09:13:11;;;;;;;;;;;;;;;30.97;32.85;97408.75;5022970;28;1356;-55
2021/07/03 09:15:43;;;;;;;;;;;;;;;30.89;33.17;97413.16;5024955;28;1121;-54
2021/07/03 09:18:12;;;;;;;;;;;;;;;30.46;33.58;97415.72;5001505;28;1894;-52
2021/07/03 09:20:40;;;;;;;;;;;;;;;30.82;33.01;97403.19;5018014;28;1271;-54
2021/07/03 09:23:09;;;;;;;;;;;;;;;30.45;33.67;97399.91;5024016;28;1331;-55
2021/07/03 09:25:35;;;;;;;;;;;;;;;30.74;33.34;97391.66;5020466;28;1166;-53
2021/07/03 09:28:11;;;;;;;;;;;;;;;30.26;34.26;97392.97;5021519;28;1631;-54
2021/07/03 09:30:36;;;;;;;;;;;;;;;30.65;33.24;97389.88;5022372;28;1138;-52
2021/07/03 09:33:01;;;;;;;;;;;;;;;30.85;32.88;97394.88;5022563;28;1537;-55
2021/07/03 09:35:27;;;;;;;;;;;;;;;30.52;33.56;97392.97;5022188;28;1383;-55
2021/07/03 09:37:58;;;;;;;;;;;;;;;30.91;32.97;97389.91;5004643;28;2121;-54
2021/07/03 09:40:23;;;;;;;;;;;;;;;30.35;33.79;97385.88;5001589;28;1550;-54
2021/07/03 09:42:49;;;;;;;;;;;;;;;30.37;33.93;97386.53;5005891;28;1352;-52
2021/07/03 09:45:15;;;;;;;;;;;;;;;30.88;33.02;97385.72;5022427;28;1162;-55
2021/07/03 09:47:41;;;;;;;;;;;;;;;30.73;33.35;97384.63;5020233;28;1541;-55
2021/07/03 09:50:09;;;;;;;;;;;;;;;30.92;32.80;97386.25;5021518;28;1022;-52
2021/07/03 09:52:35;;;;;;;;;;;;;;;30.57;33.53;97385.34;5020653;28;1406;-53
2021/07/03 09:55:01;;;;;;;;;;;;;;;30.51;33.41;97393.97;5023716;28;1293;-54
2021/07/03 09:57:26;;;;;;;;;;;;;;;30.90;33.04;97390.91;5021047;28;1960;-53
2021/07/03 09:59:51;;;;;;;;;;;;;;;30.52;33.49;97395.63;5023081;28;1212;-55
2021/07/03 10:02:16;;;;;;;;;;;;;;;30.78;33.25;97396.47;5020451;28;1962;-53
2021/07/03 10:04:41;;;;;;;;;;;;;;;30.92;32.89;97384.41;5020912;28;1593;-53
2021/07/03 10:07:27;;;;;;;;;;;;;;;31.20;32.35;97390.34;5017384;28;1667;-52
2021/07/03 10:09:56;;;;;;;;;;;;;;;30.88;33.07;97390.19;5020254;28;1616;-55
2021/07/03 10:12:23;;;;;;;;;;;;;;;31.37;32.36;97394.78;5020757;28;1337;-53
2021/07/03 10:14:48;;;;;;;;;;;;;;;30.64;33.43;97383.72;5020986;28;1272;-54
2021/07/03 10:17:24;;;;;;;;;;;;;;;30.84;32.84;97385.22;5002440;28;1910;-53
2021/07/03 10:19:49;;;;;;;;;;;;;;;30.79;33.50;97384.84;5019833;28;1588;-54
2021/07/03 10:22:16;;;;;;;;;;;;;;;30.24;34.01;97371.81;5019847;28;1470;-54
2021/07/03 10:24:54;;;;;;;;;;;;;;;30.76;32.95;97369.19;5021225;28;1299;-55
2021/07/03 10:27:20;;;;;;;;;;;;;;;30.72;33.35;97373.16;5018910;28;1619;-55
2021/07/03 10:29:47;;;;;;;;;;;;;;;30.43;33.58;97364.66;5021978;28;1196;-53
2021/07/03 10:32:23;;;;;;;;;;;;;;;30.06;34.41;97370.16;5020516;28;1446;-52
2021/07/03 10:34:48;;;;;;;;;;;;;;;30.44;33.69;97361.00;5020429;28;1678;-53
2021/07/03 10:37:15;;;;;;;;;;;;;;;30.85;33.19;97367.41;5021073;28;1902;-51
2021/07/03 10:39:40;;;;;;;;;;;;;;;30.55;33.56;97364.22;5018663;28;1014;-54
2021/07/03 10:42:05;;;;;;;;;;;;;;;30.55;33.73;97355.38;5018767;28;1767;-53
2021/07/03 10:44:38;;;;;;;;;;;;;;;30.20;34.09;97351.84;5020905;28;1418;-54
2021/07/03 10:47:07;;;;;;;;;;;;;;;30.85;33.17;97349.59;5020152;28;1393;-52
2021/07/03 10:49:32;;;;;;;;;;;;;;;30.74;33.18;97351.72;5018103;28;1584;-53
2021/07/03 10:51:57;;;;;;;;;;;;;;;30.83;33.25;97346.25;5018836;28;1302;-54
2021/07/03 10:54:25;;;;;;;;;;;;;;;30.29;34.03;97340.25;5020964;28;1351;-54
2021/07/03 10:56:51;;;;;;;;;;;;;;;30.85;33.25;97340.78;5017365;28;1905;-55
2021/07/03 10:59:17;;;;;;;;;;;;;;;31.22;32.72;97343.13;5018985;28;1593;-54
2021/07/03 11:01:43;;;;;;;;;;;;;;;30.22;33.88;97338.38;5019358;28;1141;-54
2021/07/03 11:04:12;;;;;;;;;;;;;;;30.68;33.61;97341.69;5019768;28;1539;-53
2021/07/03 11:06:41;;;;;;;;;;;;;;;31.02;32.88;97331.03;5018871;28;1767;-53
2021/07/03 11:09:06;;;;;;;;;;;;;;;30.36;33.98;97331.66;5021208;28;1699;-55
2021/07/03 11:11:37;;;;;;;;;;;;;;;30.60;33.72;97333.63;5002183;28;1395;-54
2021/07/03 11:14:02;;;;;;;;;;;;;;;30.52;33.39;97327.28;5002738;28;1479;-52
2021/07/03 11:16:28;;;;;;;;;;;;;;;30.85;33.00;97324.78;5019330;28;1704;-53
2021/07/03 11:18:54;;;;;;;;;;;;;;;30.99;32.82;97323.38;5020306;28;1973;-53
2021/07/03 11:21:19;;;;;;;;;;;;;;;30.53;33.62;97320.13;5018768;28;1310;-52
2021/07/03 11:23:44;;;;;;;;;;;;;;;30.37;34.01;97322.69;5017555;28;1481;-52
2021/07/03 11:26:10;;;;;;;;;;;;;;;30.44;33.96;97326.41;5022158;28;1196;-53
2021/07/03 11:28:35;;;;;;;;;;;;;;;31.08;32.89;97323.22;5019082;28;1553;-54
2021/07/03 11:31:01;;;;;;;;;;;;;;;30.45;33.65;97314.75;5020068;28;1862;-53
2021/07/03 11:33:30;;;;;;;;;;;;;;;30.60;33.87;97315.84;5019252;28;1609;-53
2021/07/03 11:35:55;;;;;;;;;;;;;;;30.80;33.40;97309.28;5020365;28;1231;-55
2021/07/03 11:38:21;;;;;;;;;;;;;;;30.71;33.30;97304.94;5019697;28;1902;-52
2021/07/03 11:40:46;;;;;;;;;;;;;;;30.49;33.51;97302.78;5017879;28;1537;-55
2021/07/03 11:43:11;;;;;;;;;;;;;;;30.56;33.48;97299.34;5021492;28;1363;-53
2021/07/03 11:45:37;;;;;;;;;;;;;;;30.77;33.21;97301.63;4957374;28;1259;-53
2021/07/03 11:48:04;;;;;;;;;;;;;;;30.85;33.25;97304.31;5018375;28;1611;-53
2021/07/03 11:50:30;;;;;;;;;;;;;;;30.38;33.63;97300.41;5020815;28;1828;-54
2021/07/03 11:52:56;;;;;;;;;;;;;;;30.15;34.36;97298.28;5019275;28;1332;-54
2021/07/03 11:55:23;;;;;;;;;;;;;;;30.96;32.94;97294.38;5018736;28;1451;-53
2021/07/03 11:57:48;;;;;;;;;;;;;;;31.07;32.86;97297.59;5020698;28;1947;-54
2021/07/03 12:00:14;;;;;;;;;;;;;;;30.70;33.31;97289.13;5002518;28;1090;-52
2021/07/03 12:02:39;;;;;;;;;;;;;;;30.65;33.24;97283.41;5020087;28;1656;-53
2021/07/03 12:05:05;;;;;;;;;;;;;;;30.42;33.88;97283.97;5001556;28;1455;-54
2021/07/03 12:07:30;;;;;;;;;;;;;;;31.04;33.01;97281.06;5018336;28;1783;-53
2021/07/03 12:10:06;;;;;;;;;;;;;;;30.23;34.15;97269.06;5017306;28;1513;-54
2021/07/03 12:12:31;;;;;;;;;;;;;;;30.24;34.20;97267.22;5017952;28;1086;-55
2021/07/03 12:15:06;;;;;;;;;;;;;;;30.69;33.55;97268.81;5018074;28;1749;-54
2021/07/03 12:17:31;;;;;;;;;;;;;;;30.50;33.64;97267.22;5018458;28;1949;-55
2021/07/03 12:20:03;;;;;;;;;;;;;;;30.62;33.37;97262.44;5017710;28;1628;-53
2021/07/03 12:22:28;;;;;;;;;;;;;;;31.21;32.61;97266.00;5018264;28;1434;-53
2021/07/03 12:24:54;;;;;;;;;;;;;;;30.76;32.97;97272.50;5043171;23;1911;-81
2021/07/03 12:27:23;;;;;;;;;;;;;;;30.22;34.05;97264.75;5003883;28;1635;-81
2021/07/03 12:29:48;;;;;;;;;;;;;;;30.37;33.82;97258.84;5020732;28;1485;-82
2021/07/03 12:32:13;;;;;;;;;;;;;;;30.49;33.74;97257.53;5022790;28;1144;-82
2021/07/03 12:34:39;;;;;;;;;;;;;;;30.75;33.60;97255.72;5003373;28;1557;-81
2021/07/03 12:37:06;;;;;;;;;;;;;;;30.40;33.92;97247.88;5021388;28;1917;-81
2021/07/03 12:39:31;;;;;;;;;;;;;;;30.83;33.24;97250.41;5028805;23;3731;-52
2021/07/03 12:41:57;;;;;;;;;;;;;;;30.47;33.82;97243.56;5019640;28;1375;-52
2021/07/03 12:44:35;;;;;;;;;;;;;;;30.49;33.68;97241.59;5018758;28;1683;-53
2021/07/03 12:47:01;;;;;;;;;;;;;;;30.55;33.50;97238.28;5020457;28;1117;-54
2021/07/03 12:49:39;;;;;;;;;;;;;;;30.75;33.26;97238.91;5016124;28;1706;-53